Time;durP1;ratioP1;P1;durP2;ratioP2;P2;SDS_P1;SDS_P2;PMS_P1;PMS_P2;Temp;Humidity;BMP_temperature;BMP_pressure;BME280_temperature;BME280_humidity;BME280_pressure;Samples;Min_cycle;Max_cycle;Signal;HPM_P1;HPM_P2
2021/04/25 00:00:39;;;;;;;26.15;14.55;;;;;;;9.66;62.90;100504.47;5026765;28;20034;-22
2021/04/25 00:03:04;;;;;;;25.42;13.40;;;;;;;9.74;62.42;100508.81;5027101;28;20026;-21
2021/04/25 00:05:30;;;;;;;31.75;14.35;;;;;;;9.43;62.46;100503.00;5027728;28;20117;-20
2021/04/25 00:07:55;;;;;;;25.30;14.38;;;;;;;9.23;63.40;100502.09;5027351;28;20034;-21
2021/04/25 00:10:21;;;;;;;27.17;14.32;;;;;;;9.55;62.07;100484.59;5028004;28;20037;-21
2021/04/25 00:12:46;;;;;;;34.17;16.77;;;;;;;9.67;62.15;100505.31;5030458;28;20091;-22
2021/04/25 00:15:15;;;;;;;26.80;13.45;;;;;;;9.39;62.59;100477.78;5013081;28;20494;-22
2021/04/25 00:17:40;;;;;;;;;;;;;;;9.52;62.82;100494.81;5031155;28;20029;-22
2021/04/25 00:20:07;;;;;;;23.83;12.90;;;;;;;9.21;63.08;100494.34;5030684;28;19909;-22
2021/04/25 00:22:33;;;;;;;24.23;13.20;;;;;;;9.59;62.79;100501.81;5012702;28;20033;-22
2021/04/25 00:24:59;;;;;;;20.85;11.95;;;;;;;9.63;61.97;100492.41;5030602;28;20033;-23
2021/04/25 00:27:25;;;;;;;20.55;11.85;;;;;;;9.64;62.09;100494.06;5030458;28;20129;-23
2021/04/25 00:29:51;;;;;;;18.65;10.85;;;;;;;9.84;61.09;100493.25;5030247;28;20082;-21
2021/04/25 00:32:16;;;;;;;21.20;12.15;;;;;;;9.69;61.57;100495.28;5030690;28;20041;-22
2021/04/25 00:34:41;;;;;;;20.13;12.35;;;;;;;9.68;62.53;100501.63;5030172;28;20037;-22
2021/04/25 00:37:07;;;;;;;21.85;12.73;;;;;;;9.75;61.26;100500.63;5030420;28;20474;-22
2021/04/25 00:39:33;;;;;;;21.52;11.98;;;;;;;9.50;62.92;100503.03;5030321;28;20026;-22
2021/04/25 00:41:58;;;;;;;23.58;12.77;;;;;;;9.27;63.44;100503.34;5030255;28;20041;-22
2021/04/25 00:44:23;;;;;;;23.65;13.00;;;;;;;9.61;63.18;100493.63;5030167;28;20029;-22
2021/04/25 00:46:49;;;;;;;22.10;11.95;;;;;;;9.58;62.89;100484.22;5012289;28;20037;-21
2021/04/25 00:49:14;;;;;;;24.88;13.70;;;;;;;9.69;62.61;100495.28;5030524;28;20091;-21
2021/04/25 00:51:40;;;;;;;21.13;13.90;;;;;;;9.63;62.58;100484.41;5030502;28;20501;-22
2021/04/25 00:54:05;;;;;;;19.92;12.45;;;;;;;9.19;63.78;100501.72;5030325;28;20037;-22
2021/04/25 00:56:31;;;;;;;17.63;10.57;;;;;;;8.81;64.98;100490.69;5012234;28;20425;-23
2021/04/25 00:58:56;;;;;;;19.08;11.63;;;;;;;9.23;63.88;100497.63;5012222;28;20029;-22
2021/04/25 01:01:26;;;;;;;19.38;12.35;;;;;;;9.36;63.79;100496.03;5012527;28;20469;-22
2021/04/25 01:03:51;;;;;;;18.63;12.52;;;;;;;9.26;63.81;100491.09;5030004;28;20022;-23
2021/04/25 01:06:17;;;;;;;21.60;12.52;;;;;;;9.24;63.96;100477.97;5030147;28;20037;-21
2021/04/25 01:08:42;;;;;;;26.23;14.05;;;;;;;9.57;62.81;100492.38;5029565;28;20033;-22
2021/04/25 01:11:08;;;;;;;26.17;14.38;;;;;;;9.68;62.62;100488.31;5029696;28;20044;-22
2021/04/25 01:13:33;;;;;;;23.88;13.25;;;;;;;9.82;61.58;100493.44;5029796;28;20029;-22
2021/04/25 01:15:59;;;;;;;21.08;12.98;;;;;;;9.56;61.60;100475.59;5029688;28;20029;-22
2021/04/25 01:18:24;;;;;;;19.10;12.43;;;;;;;9.48;61.75;100489.09;5012142;28;20485;-22
2021/04/25 01:20:57;;;;;;;20.30;12.88;;;;;;;9.18;62.88;100481.44;5029048;28;20033;-22
2021/04/25 01:23:22;;;;;;;22.65;13.82;;;;;;;9.41;62.46;100477.59;5029552;28;20029;-22
2021/04/25 01:25:48;;;;;;;18.83;12.15;;;;;;;8.85;64.62;100478.63;5011623;28;20033;-22
2021/04/25 01:28:13;;;;;;;21.67;12.32;;;;;;;8.50;65.11;100470.69;5029228;28;20128;-22
2021/04/25 01:30:39;;;;;;;18.45;11.93;;;;;;;8.40;66.01;100473.63;5029377;28;20026;-23
2021/04/25 01:33:04;;;;;;;19.58;12.55;;;;;;;8.69;65.57;100481.63;5029360;28;20025;-22
2021/04/25 01:35:30;;;;;;;20.15;12.75;;;;;;;8.80;64.53;100476.53;5029303;28;20029;-22
2021/04/25 01:37:56;;;;;;;19.73;12.55;;;;;;;9.13;63.00;100467.88;5029351;28;20040;-22
2021/04/25 01:40:23;;;;;;;18.10;11.82;;;;;;;8.60;64.66;100468.47;5011880;28;20037;-21
2021/04/25 01:42:49;;;;;;;21.63;12.02;;;;;;;8.63;64.66;100453.97;5028723;28;20025;-20
2021/04/25 01:45:17;;;;;;;19.75;13.15;;;;;;;9.13;62.87;100486.50;5029467;28;20044;-21
2021/04/25 01:47:48;;;;;;;20.48;12.07;;;;;;;8.81;63.78;100478.19;5011961;28;20032;-21
2021/04/25 01:50:14;;;;;;;21.10;13.15;;;;;;;8.69;63.71;100453.19;5028880;28;20124;-22
2021/04/25 01:52:40;;;;;;;20.38;13.38;;;;;;;8.85;63.75;100463.50;5028649;28;20187;-22
2021/04/25 01:55:05;;;;;;;19.63;13.25;;;;;;;8.56;64.26;100479.69;5010965;28;20041;-22
2021/04/25 01:57:31;;;;;;;19.83;12.35;;;;;;;8.63;64.01;100472.59;5028985;28;20116;-21
2021/04/25 01:59:56;;;;;;;21.08;12.60;;;;;;;8.56;63.40;100471.72;5011540;28;20075;-21
2021/04/25 02:02:22;;;;;;;19.17;12.85;;;;;;;8.50;63.95;100480.47;5029079;28;20042;-22
2021/04/25 02:04:47;;;;;;;20.50;13.13;;;;;;;8.54;63.73;100476.41;5028859;28;20474;-23
2021/04/25 02:07:13;;;;;;;22.02;13.93;;;;;;;8.47;64.37;100476.38;5028591;28;20041;-22
2021/04/25 02:09:38;;;;;;;19.80;13.63;;;;;;;8.60;64.05;100464.97;5028576;28;20026;-22
2021/04/25 02:12:04;;;;;;;19.08;12.30;;;;;;;8.84;63.22;100477.78;5028455;28;20033;-22
2021/04/25 02:14:30;;;;;;;20.50;12.98;;;;;;;8.27;65.22;100472.72;5028550;28;20037;-23
2021/04/25 02:16:55;;;;;;;20.85;13.45;;;;;;;8.16;65.43;100485.53;5028674;28;20033;-22
2021/04/25 02:19:21;;;;;;;21.02;12.52;;;;;;;8.30;65.14;100470.50;5028473;28;20087;-23
2021/04/25 02:21:46;;;;;;;21.95;13.23;;;;;;;8.09;65.93;100481.16;5028442;28;20041;-22
2021/04/25 02:24:12;;;;;;;17.25;10.95;;;;;;;7.91;68.94;100487.78;5028211;28;20781;-22
2021/04/25 02:26:37;;;;;;;21.45;12.13;;;;;;;8.03;68.17;100485.44;5028199;28;20107;-22
2021/04/25 02:29:03;;;;;;;17.55;11.52;;;;;;;7.95;69.36;100467.78;5010490;28;20035;-22
2021/04/25 02:31:28;;;;;;;17.35;11.23;;;;;;;8.43;67.02;100467.13;5028159;28;20030;-22
2021/04/25 02:33:54;;;;;;;22.17;11.85;;;;;;;8.45;66.95;100473.91;5027679;28;20456;-21
2021/04/25 02:36:19;;;;;;;15.80;10.63;;;;;;;8.21;67.95;100472.50;5010745;28;20036;-22
2021/04/25 02:38:45;;;;;;;17.20;9.93;;;;;;;8.39;66.92;100463.19;5027913;28;20038;-22
2021/04/25 02:41:10;;;;;;;15.82;10.13;;;;;;;8.20;67.35;100456.75;5027994;28;20485;-22
2021/04/25 02:43:36;;;;;;;14.95;10.02;;;;;;;7.98;69.03;100479.84;5028272;28;20060;-22
2021/04/25 02:46:01;;;;;;;15.35;9.85;;;;;;;7.56;70.30;100465.56;5028098;28;20029;-22
2021/04/25 02:48:26;;;;;;;16.90;10.45;;;;;;;7.90;69.66;100480.00;5027820;28;20041;-22
2021/04/25 02:50:52;;;;;;;16.92;10.70;;;;;;;8.25;68.67;100475.56;5027470;28;20469;-22
2021/04/25 02:53:17;;;;;;;19.10;10.77;;;;;;;8.39;67.87;100466.66;5027591;28;20553;-22
2021/04/25 02:55:43;;;;;;;19.17;10.70;;;;;;;8.46;68.47;100485.38;5027552;28;20040;-22
2021/04/25 02:58:09;;;;;;;17.48;11.18;;;;;;;8.09;69.79;100462.56;5027711;28;20391;-22
2021/04/25 03:00:35;;;;;;;20.02;12.07;;;;;;;8.05;71.11;100468.28;5027663;28;20029;-22
2021/04/25 03:03:00;;;;;;;17.98;11.15;;;;;;;7.87;72.84;100483.88;5027624;28;20029;-22
2021/04/25 03:05:26;;;;;;;20.38;11.65;;;;;;;7.87;73.84;100475.03;5027550;28;20503;-21
2021/04/25 03:07:52;;;;;;;21.42;11.95;;;;;;;7.90;75.25;100491.44;5027699;28;20083;-20
2021/04/25 03:10:17;;;;;;;21.33;11.88;;;;;;;8.06;75.50;100482.38;5027694;28;20520;-21
2021/04/25 03:12:44;;;;;;;21.70;12.55;;;;;;;7.97;75.67;100489.66;5009879;28;20040;-22
2021/04/25 03:15:10;;;;;;;18.13;11.63;;;;;;;7.77;77.14;100478.06;5028026;28;20030;-22
2021/04/25 03:17:36;;;;;;;21.92;11.35;;;;;;;8.09;76.33;100483.81;5027631;28;20086;-22
2021/04/25 03:20:03;;;;;;;21.10;11.60;;;;;;;8.23;75.56;100501.50;5027460;28;20062;-22
2021/04/25 03:22:29;;;;;;;20.40;12.00;;;;;;;8.04;76.19;100479.91;5027207;28;20064;-22
2021/04/25 03:24:54;;;;;;;20.65;11.65;;;;;;;8.09;76.13;100489.13;5009447;28;20034;-23
2021/04/25 03:27:20;;;;;;;19.63;11.85;;;;;;;8.07;75.88;100480.53;5027481;28;20033;-21
2021/04/25 03:29:45;;;;;;;19.98;11.48;;;;;;;8.13;75.95;100496.56;5027622;28;20425;-22
2021/04/25 03:32:10;;;;;;;20.67;12.45;;;;;;;8.04;75.64;100501.16;5027280;28;20033;-22
2021/04/25 03:34:36;;;;;;;21.40;12.57;;;;;;;8.13;75.48;100501.03;5026853;28;20025;-22
2021/04/25 03:37:02;;;;;;;21.38;12.48;;;;;;;8.03;76.36;100502.19;5027142;28;20414;-22
2021/04/25 03:39:27;;;;;;;20.55;10.93;;;;;;;8.00;76.49;100502.56;5027225;28;20057;-22
2021/04/25 03:41:52;;;;;;;19.83;12.05;;;;;;;8.32;74.96;100489.72;5027621;28;20487;-22
2021/04/25 03:44:18;;;;;;;19.75;11.95;;;;;;;8.30;74.95;100490.94;5027246;28;20040;-23
2021/04/25 03:46:43;;;;;;;18.95;11.15;;;;;;;8.37;74.89;100495.28;5026836;28;20513;-22
2021/04/25 03:49:09;;;;;;;20.30;11.60;;;;;;;8.59;74.49;100506.72;5027164;28;20029;-21
2021/04/25 03:51:35;;;;;;;21.45;11.93;;;;;;;8.91;72.82;100499.13;5027128;28;20053;-21
2021/04/25 03:54:00;;;;;;;20.80;11.60;;;;;;;8.68;73.49;100480.78;5009499;28;20033;-23
2021/04/25 03:56:26;;;;;;;19.48;11.98;;;;;;;9.00;72.69;100503.25;5027101;28;20040;-22
2021/04/25 03:58:51;;;;;;;19.52;11.85;;;;;;;9.00;72.77;100502.44;5026825;28;20052;-22
2021/04/25 04:01:17;;;;;;;20.90;11.55;;;;;;;9.06;72.87;100506.97;5026957;28;20037;-22
2021/04/25 04:03:42;;;;;;;18.70;11.80;;;;;;;9.20;72.17;100516.63;5026862;28;20060;-21
2021/04/25 04:06:08;;;;;;;19.30;12.00;;;;;;;8.99;72.82;100506.09;5026785;28;20502;-22
2021/04/25 04:08:33;;;;;;;20.20;12.52;;;;;;;9.01;73.44;100520.88;5026759;28;20045;-22
2021/04/25 04:10:59;;;;;;;21.77;13.23;;;;;;;9.04;73.31;100520.47;5026934;28;20398;-23
2021/04/25 04:13:24;;;;;;;19.60;11.43;;;;;;;9.01;72.86;100506.72;5009199;28;20398;-22
2021/04/25 04:15:50;;;;;;;24.42;13.98;;;;;;;9.05;72.82;100507.97;5026791;28;20033;-22
2021/04/25 04:18:15;;;;;;;21.17;13.77;;;;;;;9.01;72.99;100512.03;5009543;28;20048;-22
2021/04/25 04:20:41;;;;;;;18.67;11.75;;;;;;;9.18;72.45;100515.22;5008774;28;20030;-23
2021/04/25 04:23:06;;;;;;;27.20;19.25;;;;;;;9.18;71.98;100525.84;5026786;28;20482;-21
2021/04/25 04:25:32;;;;;;;21.30;14.18;;;;;;;9.39;71.53;100511.59;5009473;28;20151;-21
2021/04/25 04:27:57;;;;;;;20.95;13.15;;;;;;;9.40;71.38;100513.25;5026930;28;20033;-22
2021/04/25 04:30:23;;;;;;;19.15;11.95;;;;;;;9.24;72.20;100520.53;5009136;28;20053;-22
2021/04/25 04:32:48;;;;;;;19.88;11.95;;;;;;;9.25;72.52;100526.69;5026469;28;20076;-22
2021/04/25 04:35:14;;;;;;;20.73;12.32;;;;;;;9.08;72.38;100512.09;5026649;28;20048;-22
2021/04/25 04:37:39;;;;;;;17.35;11.63;;;;;;;9.27;72.35;100523.84;5026558;28;20455;-21
2021/04/25 04:40:05;;;;;;;18.25;12.38;;;;;;;9.45;71.96;100532.09;5026739;28;20025;-23
2021/04/25 04:42:30;;;;;;;23.13;14.38;;;;;;;9.74;70.68;100532.78;5026484;28;20033;-19
2021/04/25 04:44:56;;;;;;;16.92;11.30;;;;;;;9.51;70.97;100514.50;5026870;28;20508;-23
2021/04/25 04:47:21;;;;;;;16.00;10.55;;;;;;;9.45;72.07;100526.75;5026756;28;20033;-23
2021/04/25 04:49:47;;;;;;;17.92;11.05;;;;;;;9.51;71.63;100523.28;5026455;28;20038;-22
2021/04/25 04:52:12;;;;;;;29.90;19.80;;;;;;;9.58;70.86;100525.97;5008471;28;20460;-22
2021/04/25 04:54:38;;;;;;;32.40;26.20;;;;;;;9.55;70.65;100521.88;5026480;28;20029;-22
2021/04/25 04:57:04;;;;;;;18.60;11.77;;;;;;;9.21;72.38;100510.31;5028541;28;20039;-20
2021/04/25 04:59:29;;;;;;;18.13;10.88;;;;;;;9.16;72.47;100526.03;5030249;28;20077;-20
2021/04/25 05:01:55;;;;;;;16.58;9.93;;;;;;;8.95;73.35;100523.47;5030152;28;20037;-23
2021/04/25 05:04:20;;;;;;;15.90;9.40;;;;;;;9.11;72.34;100515.16;5029866;28;20413;-23
2021/04/25 05:06:46;;;;;;;15.73;9.80;;;;;;;9.40;71.50;100527.38;5029909;28;20048;-22
2021/04/25 05:09:11;;;;;;;15.00;9.70;;;;;;;9.27;72.14;100523.84;5029736;28;20040;-23
2021/04/25 05:11:37;;;;;;;15.15;10.15;;;;;;;9.59;71.02;100533.75;5029816;28;20836;-23
2021/04/25 05:14:02;;;;;;;17.17;11.05;;;;;;;9.38;71.15;100521.41;5029826;28;20095;-21
2021/04/25 05:16:28;;;;;;;16.60;10.80;;;;;;;9.54;70.70;100532.72;5030003;28;20033;-22
2021/04/25 05:18:54;;;;;;;22.00;11.82;;;;;;;9.54;71.34;100540.72;5029305;28;20036;-22
2021/04/25 05:21:19;;;;;;;17.17;11.70;;;;;;;9.88;69.43;100529.13;5029742;28;20037;-23
2021/04/25 05:23:44;;;;;;;17.60;9.93;;;;;;;9.79;69.19;100523.16;5029528;28;20025;-22
2021/04/25 05:26:10;;;;;;;14.88;9.90;;;;;;;9.91;69.42;100539.38;5029569;28;20064;-22
2021/04/25 05:28:36;;;;;;;32.80;29.20;;;;;;;10.04;68.84;100536.72;5029282;28;20040;-22
2021/04/25 05:31:02;;;;;;;17.38;11.30;;;;;;;10.18;68.11;100534.88;5029319;28;20036;-21
2021/04/25 05:33:28;;;;;;;19.15;11.98;;;;;;;10.15;68.39;100542.47;5029447;28;20029;-21
2021/04/25 05:35:54;;;;;;;19.27;10.20;;;;;;;10.38;67.66;100532.25;5029604;28;20773;-21
2021/04/25 05:38:19;;;;;;;47.97;36.63;;;;;;;10.58;66.76;100526.91;5029622;28;20022;-22
2021/04/25 05:40:45;;;;;;;16.65;9.77;;;;;;;10.49;66.76;100543.31;5029183;28;20030;-22
2021/04/25 05:43:10;;;;;;;31.17;22.20;;;;;;;10.48;66.72;100533.66;5029227;28;20025;-22
2021/04/25 05:45:36;;;;;;;14.13;9.75;;;;;;;10.40;68.01;100540.03;5029139;28;20413;-22
2021/04/25 05:48:01;;;;;;;15.05;9.35;;;;;;;10.79;66.16;100547.19;5029205;28;20103;-23
2021/04/25 05:50:28;;;;;;;17.75;9.30;;;;;;;10.57;67.09;100535.91;5029087;28;20126;-22
2021/04/25 05:52:53;;;;;;;14.25;8.82;;;;;;;10.47;67.72;100550.72;5028453;28;20041;-22
2021/04/25 05:55:19;;;;;;;40.72;31.13;;;;;;;10.32;67.40;100543.75;5028886;28;20387;-23
2021/04/25 05:57:44;;;;;;;24.55;17.35;;;;;;;10.63;65.58;100535.09;5028750;28;20048;-23
2021/04/25 06:00:13;;;;;;;15.73;9.20;;;;;;;10.62;67.04;100540.63;5028842;28;20025;-21
2021/04/25 06:02:38;;;;;;;14.43;9.07;;;;;;;10.56;66.48;100546.78;5028440;28;20113;-23
2021/04/25 06:05:04;;;;;;;16.45;10.48;;;;;;;10.84;66.29;100547.34;5028851;28;20041;-22
2021/04/25 06:07:30;;;;;;;24.92;18.55;;;;;;;10.92;64.51;100548.16;5028199;28;20087;-23
2021/04/25 06:09:55;;;;;;;34.88;25.92;;;;;;;11.30;64.86;100542.06;5028396;28;20031;-22
2021/04/25 06:12:21;;;;;;;23.67;16.80;;;;;;;11.46;63.60;100545.09;5028540;28;20405;-22
2021/04/25 06:14:46;;;;;;;16.55;10.82;;;;;;;11.77;62.66;100524.78;5028317;28;20021;-22
2021/04/25 06:17:12;;;;;;;24.10;15.30;;;;;;;11.88;62.91;100544.66;5028554;28;20033;-21
2021/04/25 06:19:37;;;;;;;21.65;11.13;;;;;;;12.01;61.95;100544.63;5028812;28;20823;-22
2021/04/25 06:22:06;;;;;;;14.40;9.52;;;;;;;11.80;63.33;100536.91;5028376;28;20045;-22
2021/04/25 06:24:31;;;;;;;15.57;9.50;;;;;;;12.10;61.52;100530.97;5028883;28;20106;-19
2021/04/25 06:26:57;;;;;;;17.00;9.35;;;;;;;12.40;61.94;100548.00;5028569;28;20819;-23
2021/04/25 06:29:23;;;;;;;20.33;9.32;;;;;;;12.42;60.28;100537.91;5028380;28;20033;-21
2021/04/25 06:31:48;;;;;;;15.82;9.75;;;;;;;12.66;59.40;100538.09;5028152;28;20468;-21
2021/04/25 06:34:14;;;;;;;14.70;9.43;;;;;;;12.26;61.22;100549.16;5028087;28;20036;-22
2021/04/25 06:36:42;;;;;;;20.55;13.15;;;;;;;12.28;61.38;100539.06;5028085;28;20596;-23
2021/04/25 06:39:08;;;;;;;;;;;;;;;12.23;61.24;100549.56;5028640;28;20025;-22
2021/04/25 06:41:33;;;;;;;23.05;10.95;;;;;;;12.52;61.52;100549.94;5010211;28;19919;-22
2021/04/25 06:43:59;;;;;;;19.80;10.55;;;;;;;12.33;63.21;100539.22;5010423;28;20037;-22
2021/04/25 06:46:25;;;;;;;15.48;10.15;;;;;;;12.66;62.90;100543.44;5027883;28;20089;-21
2021/04/25 06:48:50;;;;;;;14.45;9.43;;;;;;;12.68;60.28;100544.03;5010110;28;20052;-22
2021/04/25 06:51:16;;;;;;;17.35;10.35;;;;;;;13.10;58.89;100533.50;5027777;28;20029;-22
2021/04/25 06:53:41;;;;;;;19.48;10.82;;;;;;;13.45;58.73;100538.25;5028099;28;20037;-22
2021/04/25 06:56:07;;;;;;;22.40;12.45;;;;;;;13.56;58.32;100537.47;5010210;28;20431;-22
2021/04/25 06:58:32;;;;;;;27.63;11.32;;;;;;;13.52;57.78;100514.88;5009724;28;20480;-22
2021/04/25 07:00:58;;;;;;;30.70;20.33;;;;;;;13.38;57.40;100524.13;5027774;28;20040;-21
2021/04/25 07:03:23;;;;;;;66.13;27.23;;;;;;;13.07;57.60;100523.25;5027936;28;20025;-20
2021/04/25 07:05:49;;;;;;;207.07;69.57;;;;;;;12.89;58.50;100547.31;5027788;28;20657;-23
2021/04/25 07:08:14;;;;;;;68.63;30.58;;;;;;;12.94;59.07;100545.63;5009840;28;20033;-22
2021/04/25 07:10:40;;;;;;;13.32;8.90;;;;;;;12.70;59.41;100544.63;5027111;28;20033;-22
2021/04/25 07:13:05;;;;;;;24.65;13.50;;;;;;;12.73;60.44;100544.22;5009803;28;20036;-21
2021/04/25 07:15:31;;;;;;;27.35;16.20;;;;;;;13.01;59.22;100548.22;5009949;28;20059;-22
2021/04/25 07:17:57;;;;;;;15.07;9.02;;;;;;;13.63;55.88;100537.41;5027473;28;20113;-21
2021/04/25 07:20:22;;;;;;;39.65;19.65;;;;;;;13.80;57.19;100537.56;5026858;28;20033;-21
2021/04/25 07:22:48;;;;;;;15.77;8.75;;;;;;;13.26;57.32;100546.28;5027182;28;20076;-22
2021/04/25 07:25:13;;;;;;;14.32;8.65;;;;;;;12.48;59.40;100556.78;5027513;28;20033;-21
2021/04/25 07:27:39;;;;;;;72.40;39.17;;;;;;;12.82;60.58;100555.44;5027302;28;20034;-21
2021/04/25 07:30:08;;;;;;;150.10;67.30;;;;;;;12.99;58.51;100531.56;5027200;28;20037;-21
2021/04/25 07:32:34;;;;;;;29.65;17.13;;;;;;;13.18;58.63;100541.25;5009415;28;20026;-21
2021/04/25 07:35:00;;;;;;;15.13;8.77;;;;;;;13.38;58.08;100542.88;5027108;28;20033;-21
2021/04/25 07:37:25;;;;;;;13.55;8.15;;;;;;;12.94;58.75;100523.41;5027165;28;20112;-21
2021/04/25 07:39:51;;;;;;;14.48;9.00;;;;;;;13.20;58.87;100515.06;5027349;28;20032;-22
2021/04/25 07:42:18;;;;;;;14.20;9.80;;;;;;;13.69;57.01;100535.66;5027145;28;20102;-21
2021/04/25 07:44:44;;;;;;;33.70;24.10;;;;;;;14.23;53.95;100509.69;5026861;28;20065;-21
2021/04/25 07:47:09;;;;;;;18.95;13.55;;;;;;;14.30;53.86;100531.84;5027265;28;20065;-21
2021/04/25 07:49:35;;;;;;;27.55;22.80;;;;;;;14.15;55.25;100534.16;5027352;28;20099;-21
2021/04/25 07:52:00;;;;;;;26.90;15.63;;;;;;;14.51;54.41;100529.66;5027007;28;20053;-23
2021/04/25 07:54:27;;;;;;;16.20;9.68;;;;;;;14.43;52.74;100520.88;5032287;28;20425;-22
2021/04/25 07:56:53;;;;;;;12.45;8.23;;;;;;;13.83;54.92;100531.75;5036641;28;20029;-22
2021/04/25 07:59:18;;;;;;;13.82;9.25;;;;;;;13.51;54.30;100537.34;5036434;28;20033;-21
2021/04/25 08:01:44;;;;;;;13.02;8.20;;;;;;;14.27;53.89;100532.31;5035358;28;20382;-22
2021/04/25 08:04:09;;;;;;;11.57;6.75;;;;;;;13.97;54.82;100525.13;5037373;28;20040;-22
2021/04/25 08:06:35;;;;;;;11.38;7.05;;;;;;;13.94;52.99;100527.47;5035906;28;20064;-21
2021/04/25 08:09:00;;;;;;;10.43;7.03;;;;;;;13.97;53.52;100514.41;5030750;28;20041;-22
2021/04/25 08:11:26;;;;;;;13.52;7.50;;;;;;;14.12;54.71;100529.25;5026776;28;20037;-22
2021/04/25 08:13:51;;;;;;;13.27;7.10;;;;;;;14.00;53.03;100522.00;5026744;28;20061;-21
2021/04/25 08:16:17;;;;;;;27.58;10.20;;;;;;;14.21;50.77;100519.81;5026874;28;20119;-21
2021/04/25 08:18:42;;;;;;;10.20;6.30;;;;;;;14.19;50.58;100508.50;5026660;28;20029;-21
2021/04/25 08:21:08;;;;;;;55.83;19.58;;;;;;;14.65;50.40;100512.28;5026761;28;20083;-21
2021/04/25 08:23:33;;;;;;;15.45;8.60;;;;;;;14.28;50.61;100509.78;5027212;28;20470;-21
2021/04/25 08:25:59;;;;;;;13.32;7.72;;;;;;;14.26;50.46;100507.34;5027185;28;20033;-21
2021/04/25 08:28:24;;;;;;;87.38;19.45;;;;;;;14.95;48.96;100511.31;5026900;28;20125;-21
2021/04/25 08:30:51;;;;;;;13.23;7.13;;;;;;;14.96;47.62;100486.09;5026503;28;20025;-21
2021/04/25 08:33:17;;;;;;;13.00;7.63;;;;;;;15.46;49.62;100496.19;5012829;28;20659;-21
2021/04/25 08:35:42;;;;;;;10.93;7.90;;;;;;;14.98;51.02;100494.72;5013421;28;20036;-21
2021/04/25 08:38:08;;;;;;;10.85;7.05;;;;;;;14.90;49.79;100492.41;5030361;28;20045;-21
2021/04/25 08:40:33;;;;;;;15.85;9.15;;;;;;;14.75;48.17;100482.97;5048088;28;20067;-21
2021/04/25 08:42:59;;;;;;;10.75;6.45;;;;;;;14.93;47.08;100481.19;5033570;28;20040;-21
2021/04/25 08:45:25;;;;;;;10.82;5.78;;;;;;;14.86;49.18;100481.31;5044834;28;20033;-21
2021/04/25 08:47:58;;;;;;;12.13;6.57;;;;;;;15.13;47.30;100481.59;5050418;28;20048;-21
2021/04/25 08:50:28;;;;;;;13.30;6.72;;;;;;;15.04;45.38;100451.59;5050047;28;20124;-21
2021/04/25 08:52:54;;;;;;;9.63;5.10;;;;;;;15.22;47.15;100458.66;5049860;28;20053;-21
2021/04/25 08:55:19;;;;;;;119.18;26.42;;;;;;;15.50;45.54;100470.44;5050070;28;20095;-21
2021/04/25 08:57:45;;;;;;;17.45;7.00;;;;;;;14.89;47.78;100447.81;5049714;28;20045;-21
2021/04/25 09:00:11;;;;;;;12.77;5.78;;;;;;;15.22;45.88;100464.03;5058552;28;20021;-21
2021/04/25 09:02:37;;;;;;;8.02;5.25;;;;;;;15.51;46.58;100439.00;5069664;28;20064;-22
2021/04/25 09:05:03;;;;;;;10.75;5.10;;;;;;;15.75;46.62;100461.22;5070022;28;20534;-22
2021/04/25 09:07:28;;;;;;;9.55;4.00;;;;;;;16.01;44.87;100471.34;5052275;28;20528;-21
2021/04/25 09:09:55;;;;;;;8.50;4.20;;;;;;;15.54;42.43;100433.16;5070045;28;20025;-21
2021/04/25 09:12:37;;;;;;;8.90;4.32;;;;;;;15.97;42.76;100447.88;5069485;28;20035;-21
2021/04/25 09:15:24;;;;;;;4.95;3.33;;;;;;;16.13;41.57;100457.00;5069399;28;20025;-21
2021/04/25 09:17:55;;;;;;;5.25;3.30;;;;;;;15.47;43.31;100425.25;5069695;28;20089;-21
2021/04/25 09:20:41;;;;;;;5.70;3.50;;;;;;;15.90;36.73;100450.72;5069357;28;20455;-21
2021/04/25 09:23:08;;;;;;;5.53;2.78;;;;;;;16.14;36.23;100431.72;5069305;28;20113;-21
2021/04/25 09:25:33;;;;;;;6.78;2.80;;;;;;;16.19;34.85;100434.50;5069481;28;20032;-21
2021/04/25 09:28:16;;;;;;;13.80;7.20;;;;;;;16.87;34.31;100441.31;5069209;28;20508;-21
2021/04/25 09:31:03;;;;;;;7.35;3.40;;;;;;;16.91;35.11;100430.88;5069294;28;20028;-21
2021/04/25 09:33:50;;;;;;;8.00;3.40;;;;;;;17.04;36.42;100430.50;5069320;28;20472;-21
2021/04/25 09:36:20;;;;;;;6.18;3.20;;;;;;;17.06;37.01;100427.53;5068401;28;20111;-21
2021/04/25 09:38:46;;;;;;;6.65;3.30;;;;;;;16.99;36.89;100416.94;5051977;28;20102;-22
2021/04/25 09:41:31;;;;;;;5.28;3.13;;;;;;;17.25;39.27;100431.50;5069125;28;20121;-21
2021/04/25 09:43:57;;;;;;;8.55;4.68;;;;;;;17.77;38.09;100415.78;5068450;28;20040;-22
2021/04/25 09:46:23;;;;;;;6.53;3.45;;;;;;;17.12;34.97;100431.94;5069183;28;20086;-21
2021/04/25 09:48:48;;;;;;;8.38;4.30;;;;;;;17.35;36.92;100421.91;5050827;28;20055;-21
2021/04/25 09:51:21;;;;;;;12.80;7.13;;;;;;;17.55;37.21;100402.38;5068946;28;20032;-21
2021/04/25 09:53:49;;;;;;;12.00;4.13;;;;;;;17.75;35.94;100399.03;5068682;28;20126;-21
2021/04/25 09:56:15;;;;;;;;;;;;;;;17.68;36.40;100410.88;5069367;28;20021;-21
2021/04/25 09:58:56;;;;;;;5.63;3.15;;;;;;;17.83;35.83;100412.91;5068873;28;19912;-21
2021/04/25 10:01:34;;;;;;;6.40;3.58;;;;;;;18.86;34.08;100408.88;5068879;28;20115;-21
2021/04/25 10:04:00;;;;;;;5.57;3.30;;;;;;;18.41;33.34;100399.50;5069000;28;20196;-20
2021/04/25 10:06:26;;;;;;;7.25;3.92;;;;;;;18.54;32.29;100386.59;5068659;28;20072;-21
2021/04/25 10:08:52;;;;;;;7.65;4.38;;;;;;;18.37;30.53;100398.41;5068465;28;20910;-21
2021/04/25 10:11:18;;;;;;;4.22;2.70;;;;;;;18.53;30.18;100377.69;5068640;28;20028;-22
2021/04/25 10:13:45;;;;;;;4.53;3.00;;;;;;;18.23;34.70;100397.25;5068492;28;20024;-21
2021/04/25 10:16:14;;;;;;;6.57;3.53;;;;;;;18.62;32.64;100378.78;5068552;28;20027;-22
2021/04/25 10:18:41;;;;;;;4.32;2.58;;;;;;;18.50;32.58;100380.91;5068526;28;20024;-21
2021/04/25 10:21:06;;;;;;;5.95;2.70;;;;;;;18.33;31.54;100378.41;5068640;28;20029;-21
2021/04/25 10:23:32;;;;;;;4.63;2.60;;;;;;;18.55;31.34;100372.00;5068223;28;20024;-21
2021/04/25 10:25:57;;;;;;;3.97;2.42;;;;;;;18.87;31.21;100348.34;5050538;28;20036;-21
2021/04/25 10:28:52;;;;;;;6.07;3.03;;;;;;;19.02;33.36;100371.06;5033728;28;20064;-21
2021/04/25 10:31:19;;;;;;;5.68;2.90;;;;;;;19.06;33.32;100364.91;5068322;28;20373;-20
2021/04/25 10:33:54;;;;;;;6.47;2.72;;;;;;;19.44;30.72;100361.94;5068317;28;20107;-20
2021/04/25 10:36:23;;;;;;;6.00;2.70;;;;;;;20.57;28.89;100357.09;5049086;28;20493;-22
2021/04/25 10:38:48;;;;;;;5.70;2.50;;;;;;;19.70;30.05;100340.28;5067461;28;20032;-21
2021/04/25 10:41:17;;;;;;;5.53;3.03;;;;;;;19.05;28.21;100365.97;5050349;28;20370;-21
2021/04/25 10:44:05;;;;;;;6.47;2.55;;;;;;;18.79;29.43;100338.06;5067723;28;20416;-21
2021/04/25 10:46:55;;;;;;;4.88;2.53;;;;;;;19.57;29.56;100349.75;5033296;28;20082;-21
2021/04/25 10:49:36;;;;;;;5.50;2.78;;;;;;;20.12;30.40;100333.72;5067882;28;20043;-21
2021/04/25 10:52:30;;;;;;;5.75;2.58;;;;;;;20.33;29.30;100346.09;5067777;28;20056;-21
2021/04/25 10:55:20;;;;;;;6.72;2.67;;;;;;;19.66;31.37;100346.22;5066844;28;20029;-21
2021/04/25 10:57:56;;;;;;;5.78;2.83;;;;;;;20.24;30.81;100337.72;5067683;28;20091;-21
2021/04/25 11:02:56;;;;;;;5.20;2.30;;;;;;;20.86;26.87;100310.34;5067178;28;20394;-21
2021/04/25 11:05:40;;;;;;;5.80;2.78;;;;;;;20.57;31.34;100323.78;5067693;28;20506;-21
2021/04/25 11:08:12;;;;;;;6.43;2.35;;;;;;;20.58;28.42;100330.81;5067411;28;20393;-21
2021/04/25 11:10:55;;;;;;;5.45;2.70;;;;;;;20.18;28.05;100316.38;5067164;28;20024;-21
2021/04/25 11:13:49;;;;;;;5.10;2.72;;;;;;;20.32;28.08;100320.09;5067213;28;20032;-20
2021/04/25 11:16:17;;;;;;;5.05;2.25;;;;;;;20.23;27.61;100319.88;5067440;28;20028;-21
2021/04/25 11:18:46;;;;;;;;;;;;;;;20.51;27.83;100335.72;5067698;28;20056;-21
2021/04/25 11:21:36;;;;;;;6.68;2.38;;;;;;;21.05;25.83;100315.91;5067282;28;20450;-21